Time;durP1;ratioP1;P1;durP2;ratioP2;P2;SDS_P1;SDS_P2;PMS_P1;PMS_P2;Temp;Humidity;BMP_temperature;BMP_pressure;BME280_temperature;BME280_humidity;BME280_pressure;Samples;Min_cycle;Max_cycle;Signal;HPM_P1;HPM_P2
2021/09/09 00:02:13;;;;;;;;;30.75;25.25;;;;;24.89;71.89;100752.97;4942225;28;45802;-68
2021/09/09 00:04:39;;;;;;;;;22.75;21.25;;;;;24.88;71.89;100749.41;4942422;28;45536;-68
2021/09/09 00:07:04;;;;;;;;;26.50;25.75;;;;;24.88;71.88;100752.13;4942855;28;45489;-68
2021/09/09 00:09:30;;;;;;;;;26.75;26.25;;;;;24.88;71.99;100757.50;4943900;28;45247;-68
2021/09/09 00:11:55;;;;;;;;;26.25;25.50;;;;;24.85;71.93;100760.56;4943883;28;46080;-67
2021/09/09 00:14:21;;;;;;;;;26.00;23.50;;;;;24.83;72.20;100759.09;4943777;28;45423;-67
2021/09/09 00:16:46;;;;;;;;;23.25;22.25;;;;;24.82;72.42;100768.22;4944057;28;45460;-67
2021/09/09 00:19:12;;;;;;;;;23.50;22.00;;;;;24.81;72.01;100770.06;4943915;28;45335;-67
2021/09/09 00:21:38;;;;;;;;;27.00;24.50;;;;;24.79;72.32;100772.91;4943600;28;45235;-67
2021/09/09 00:24:04;;;;;;;;;29.75;26.25;;;;;24.78;71.98;100759.63;4943325;28;45181;-67
2021/09/09 00:26:30;;;;;;;;;23.50;22.50;;;;;24.76;72.33;100758.97;4938784;28;45553;-67
2021/09/09 00:28:55;;;;;;;;;24.50;24.25;;;;;24.74;71.87;100755.66;4943684;28;45303;-67
2021/09/09 00:31:21;;;;;;;;;27.00;24.75;;;;;24.72;71.02;100753.09;4943603;28;45772;-67
2021/09/09 00:33:46;;;;;;;;;22.25;20.50;;;;;24.71;71.03;100745.22;4943676;28;45441;-67
2021/09/09 00:36:12;;;;;;;;;21.50;18.50;;;;;24.71;71.70;100739.81;4943226;28;45315;-67
2021/09/09 00:38:38;;;;;;;;;21.75;21.00;;;;;24.69;70.80;100731.94;4943828;28;45254;-67
2021/09/09 00:41:04;;;;;;;;;26.00;21.75;;;;;24.71;71.54;100731.75;4943269;28;46087;-68
2021/09/09 00:43:30;;;;;;;;;24.00;23.50;;;;;24.71;70.63;100729.88;4943489;28;45466;-68
2021/09/09 00:45:56;;;;;;;;;23.00;21.25;;;;;24.73;71.88;100732.41;4943730;28;45323;-68
2021/09/09 00:48:25;;;;;;;;;21.25;21.25;;;;;24.71;71.08;100739.81;4943717;28;45229;-67
2021/09/09 00:50:51;;;;;;;;;19.25;17.00;;;;;24.70;70.77;100738.16;4943217;28;45339;-67
2021/09/09 00:53:18;;;;;;;;;21.00;18.50;;;;;24.66;70.58;100734.16;4943287;28;45374;-67
2021/09/09 00:55:47;;;;;;;;;21.50;19.75;;;;;24.65;70.66;100740.59;4943433;28;45323;-68
2021/09/09 00:58:12;;;;;;;;;21.75;20.50;;;;;24.61;71.06;100747.34;4943327;28;45344;-67
2021/09/09 01:00:39;;;;;;;;;27.50;22.25;;;;;24.59;71.06;100749.38;4925534;28;46282;-67
2021/09/09 01:03:07;;;;;;;;;27.25;24.00;;;;;24.59;70.86;100752.06;4943296;28;45268;-67
2021/09/09 01:05:37;;;;;;;;;23.25;20.25;;;;;24.61;70.69;100753.56;4943054;28;45412;-67
2021/09/09 01:08:04;;;;;;;;;22.75;20.00;;;;;24.60;70.56;100742.97;4943114;28;45498;-67
2021/09/09 01:10:29;;;;;;;;;18.75;18.00;;;;;24.59;71.10;100747.53;4942936;28;46565;-67
2021/09/09 01:12:56;;;;;;;;;23.75;20.00;;;;;24.59;71.27;100757.47;4942988;28;45452;-67
2021/09/09 01:15:21;;;;;;;;;20.00;18.75;;;;;24.54;70.47;100752.59;4943202;28;45343;-68
2021/09/09 01:17:47;;;;;;;;;21.75;20.00;;;;;24.53;70.49;100760.88;4943026;28;45280;-67
2021/09/09 01:20:13;;;;;;;;;17.25;17.25;;;;;24.53;71.09;100755.50;4942269;28;45453;-68
2021/09/09 01:22:39;;;;;;;;;21.25;20.25;;;;;24.52;70.76;100757.34;4942167;28;45431;-68
2021/09/09 01:25:05;;;;;;;;;19.75;18.25;;;;;24.52;70.44;100769.97;4942537;28;45517;-68
2021/09/09 01:27:31;;;;;;;;;21.75;20.50;;;;;24.48;70.71;100764.94;4942856;28;45275;-67
2021/09/09 01:29:56;;;;;;;;;25.00;21.25;;;;;24.48;70.75;100766.78;4942823;28;45330;-68
2021/09/09 01:32:22;;;;;;;;;23.75;21.50;;;;;24.45;70.90;100759.91;4942474;28;45424;-67
2021/09/09 01:34:48;;;;;;;;;27.50;20.25;;;;;24.43;70.51;100751.19;4943174;28;45301;-67
2021/09/09 01:37:13;;;;;;;;;22.00;20.75;;;;;24.42;70.50;100756.78;4942148;28;45663;-68
2021/09/09 01:39:43;;;;;;;;;22.75;19.75;;;;;24.43;70.39;100756.59;4942425;28;45398;-67
2021/09/09 01:42:09;;;;;;;;;20.50;18.25;;;;;24.42;70.03;100765.69;4941140;28;45270;-67
2021/09/09 01:44:34;;;;;;;;;24.25;20.00;;;;;24.40;70.35;100766.84;4942779;28;45443;-67
2021/09/09 01:47:00;;;;;;;;;25.25;23.00;;;;;24.40;70.31;100769.56;4942573;28;45434;-68
2021/09/09 01:49:27;;;;;;;;;24.75;21.00;;;;;24.42;70.63;100773.75;4942686;28;45586;-68
2021/09/09 01:51:52;;;;;;;;;22.25;22.00;;;;;24.42;70.65;100775.63;4942194;28;45494;-68
2021/09/09 01:54:18;;;;;;;;;25.75;22.25;;;;;24.42;70.24;100772.91;4942614;28;45402;-68
2021/09/09 01:56:43;;;;;;;;;23.00;19.75;;;;;24.41;71.04;100773.91;4942453;28;45233;-68
2021/09/09 01:59:09;;;;;;;;;20.00;19.25;;;;;24.42;70.37;100784.53;4942417;28;45644;-68
2021/09/09 02:01:34;;;;;;;;;23.75;21.75;;;;;24.41;70.81;100782.00;4942375;28;45292;-67
2021/09/09 02:04:01;;;;;;;;;22.75;20.50;;;;;24.40;71.16;100774.94;4942742;28;45252;-67
2021/09/09 02:06:26;;;;;;;;;22.25;20.50;;;;;24.40;70.35;100781.16;4942171;28;45563;-68
2021/09/09 02:08:52;;;;;;;;;21.75;20.50;;;;;24.40;70.32;100778.47;4942225;28;45351;-67
2021/09/09 02:11:18;;;;;;;;;26.50;26.50;;;;;24.38;71.09;100775.13;4943471;28;45449;-67
2021/09/09 02:13:43;;;;;;;;;22.50;22.00;;;;;24.37;70.73;100768.06;4945839;28;45392;-67
2021/09/09 02:16:08;;;;;;;;;22.25;21.25;;;;;24.37;71.10;100768.06;4945771;28;45316;-68
2021/09/09 02:18:35;;;;;;;;;24.25;20.25;;;;;24.37;71.27;100767.22;4945623;28;45464;-67
2021/09/09 02:21:00;;;;;;;;;26.00;22.50;;;;;24.37;70.80;100772.63;4945464;28;45323;-67
2021/09/09 02:23:26;;;;;;;;;23.50;23.00;;;;;24.38;70.96;100776.97;4945664;28;45507;-67
2021/09/09 02:25:52;;;;;;;;;23.00;22.25;;;;;24.38;71.58;100772.44;4945487;28;45286;-68
2021/09/09 02:28:17;;;;;;;;;23.50;19.00;;;;;24.40;71.23;100770.38;4945661;28;45939;-68
2021/09/09 02:30:43;;;;;;;;;22.00;21.25;;;;;24.40;71.02;100773.06;4945647;28;45630;-68
2021/09/09 02:33:09;;;;;;;;;22.50;21.50;;;;;24.40;71.14;100772.25;4945475;28;45200;-68
2021/09/09 02:35:35;;;;;;;;;23.00;21.00;;;;;24.39;71.03;100779.47;4945330;28;45242;-68
2021/09/09 02:38:01;;;;;;;;;28.50;25.00;;;;;24.39;71.63;100775.97;4945094;28;46168;-68
2021/09/09 02:40:26;;;;;;;;;24.50;23.75;;;;;24.36;71.62;100773.63;4945266;28;45319;-68
2021/09/09 02:42:52;;;;;;;;;22.25;21.50;;;;;24.35;71.81;100762.03;4945440;28;45290;-68
2021/09/09 02:45:17;;;;;;;;;24.50;23.50;;;;;24.33;71.29;100764.06;4945442;28;45410;-68
2021/09/09 02:47:43;;;;;;;;;23.75;21.25;;;;;24.31;71.10;100768.75;4945270;28;46138;-68
2021/09/09 02:50:09;;;;;;;;;29.25;25.00;;;;;24.28;71.09;100766.41;4945086;28;45306;-68
2021/09/09 02:52:34;;;;;;;;;29.25;24.25;;;;;24.28;71.49;100771.81;4945179;28;45315;-68
2021/09/09 02:55:01;;;;;;;;;28.00;24.25;;;;;24.27;71.00;100763.91;4944938;28;45548;-68
2021/09/09 02:57:27;;;;;;;;;23.25;22.50;;;;;24.25;71.45;100769.47;4945045;28;45251;-68
2021/09/09 02:59:52;;;;;;;;;28.50;24.00;;;;;24.21;70.93;100765.47;4945024;28;45200;-68
2021/09/09 03:02:18;;;;;;;;;31.75;26.75;;;;;24.21;70.84;100760.91;4945261;28;45205;-68
2021/09/09 03:04:44;;;;;;;;;32.00;26.75;;;;;24.20;70.91;100774.56;4945008;28;45480;-68
2021/09/09 03:07:10;;;;;;;;;27.25;26.00;;;;;24.18;71.36;100777.44;4944776;28;45352;-67
2021/09/09 03:09:35;;;;;;;;;27.00;27.00;;;;;24.17;71.05;100773.06;4944736;28;45483;-68
2021/09/09 03:12:01;;;;;;;;;25.00;23.00;;;;;24.17;71.35;100762.31;4944941;28;45510;-68
2021/09/09 03:14:26;;;;;;;;;29.00;27.25;;;;;24.18;71.17;100758.59;4944883;28;45515;-68
2021/09/09 03:16:52;;;;;;;;;28.00;26.00;;;;;24.19;71.61;100757.56;4944907;28;45469;-68
2021/09/09 03:19:18;;;;;;;;;26.50;24.25;;;;;24.19;70.89;100759.44;4944778;28;45314;-68
2021/09/09 03:21:43;;;;;;;;;26.00;25.00;;;;;24.18;71.80;100765.84;4944549;28;45516;-68
2021/09/09 03:24:09;;;;;;;;;27.00;25.25;;;;;24.18;71.09;100773.91;4944524;28;45453;-68
2021/09/09 03:26:34;;;;;;;;;24.75;24.75;;;;;24.16;71.34;100770.53;4944555;28;45319;-68
2021/09/09 03:29:00;;;;;;;;;27.75;23.25;;;;;24.13;70.75;100766.34;4944577;28;45393;-68
2021/09/09 03:31:26;;;;;;;;;31.50;27.00;;;;;24.09;71.22;100756.94;4944699;28;45307;-68
2021/09/09 03:33:51;;;;;;;;;26.50;25.50;;;;;24.09;70.87;100756.09;4944740;28;45257;-68
2021/09/09 03:36:17;;;;;;;;;26.00;25.00;;;;;24.06;71.00;100761.84;4944105;28;45696;-68
2021/09/09 03:38:42;;;;;;;;;28.50;26.75;;;;;24.02;71.03;100756.00;4944278;28;45670;-67
2021/09/09 03:41:08;;;;;;;;;30.75;26.75;;;;;24.01;70.56;100758.84;4944566;28;45227;-68
2021/09/09 03:43:34;;;;;;;;;26.00;23.25;;;;;24.00;70.90;100746.41;4944583;28;45266;-67
2021/09/09 03:46:00;;;;;;;;;26.50;26.00;;;;;23.98;70.14;100743.06;4944231;28;45424;-68
2021/09/09 03:48:25;;;;;;;;;26.75;24.50;;;;;23.96;70.72;100745.94;4944498;28;45682;-68
2021/09/09 03:50:51;;;;;;;;;27.00;23.75;;;;;23.97;70.81;100747.63;4944320;28;45287;-68
2021/09/09 03:53:17;;;;;;;;;23.50;23.25;;;;;23.96;70.45;100745.94;4944625;28;45339;-68
2021/09/09 03:55:42;;;;;;;;;31.75;26.50;;;;;23.96;70.71;100743.25;4944059;28;45951;-68
2021/09/09 03:58:08;;;;;;;;;29.50;25.50;;;;;23.97;70.67;100744.09;4944024;28;45320;-68
2021/09/09 04:00:33;;;;;;;;;21.00;16.00;;;;;23.95;71.01;100747.81;4926790;28;45385;-68
2021/09/09 04:02:59;;;;;;;;;29.50;27.00;;;;;23.92;70.63;100750.84;4944255;28;45351;-68
2021/09/09 04:05:25;;;;;;;;;28.50;24.50;;;;;23.91;70.04;100749.16;4943521;28;46151;-68
2021/09/09 04:07:51;;;;;;;;;28.25;25.75;;;;;23.91;70.14;100748.31;4944003;28;45273;-68
2021/09/09 04:10:17;;;;;;;;;27.00;26.00;;;;;23.92;70.96;100748.13;4943817;28;45233;-68
2021/09/09 04:12:42;;;;;;;;;28.00;25.50;;;;;23.92;71.13;100750.84;4944067;28;45641;-68
2021/09/09 04:15:09;;;;;;;;;23.25;22.50;;;;;23.94;71.15;100750.69;4943749;28;45316;-68
2021/09/09 04:17:35;;;;;;;;;27.25;26.50;;;;;23.91;70.97;100754.53;4943883;28;45316;-67
2021/09/09 04:20:00;;;;;;;;;28.75;26.25;;;;;23.89;71.68;100743.13;4943856;28;45307;-68
2021/09/09 04:22:26;;;;;;;;;30.75;28.00;;;;;23.88;71.57;100746.84;4943638;28;45304;-68
2021/09/09 04:24:52;;;;;;;;;34.25;30.75;;;;;23.87;71.16;100739.78;4943152;28;45480;-68
2021/09/09 04:27:22;;;;;;;;;33.00;29.75;;;;;23.86;71.54;100732.72;4943290;28;45330;-68
2021/09/09 04:29:49;;;;;;;;;21.25;20.25;;;;;23.86;70.98;100730.03;4927772;28;45286;-68
2021/09/09 04:32:14;;;;;;;;;29.00;28.50;;;;;23.84;71.30;100725.84;4943429;28;45549;-68
2021/09/09 04:34:40;;;;;;;;;25.25;24.00;;;;;23.81;71.34;100726.19;4942920;28;45207;-68
2021/09/09 04:37:05;;;;;;;;;31.00;27.25;;;;;23.77;71.11;100722.16;4943181;28;45496;-67
2021/09/09 04:39:31;;;;;;;;;30.75;24.75;;;;;23.74;71.05;100726.06;4943414;28;45459;-67
2021/09/09 04:41:58;;;;;;;;;27.25;25.25;;;;;23.72;70.71;100721.88;4943718;28;45306;-67
2021/09/09 04:44:23;;;;;;;;;25.00;22.50;;;;;23.68;70.83;100722.22;4943252;28;45642;-67
2021/09/09 04:46:49;;;;;;;;;28.25;25.75;;;;;23.67;71.43;100717.84;4943549;28;45404;-67
2021/09/09 04:49:15;;;;;;;;;26.00;24.75;;;;;23.66;71.23;100708.13;4943343;28;45343;-68
2021/09/09 04:51:40;;;;;;;;;27.00;23.75;;;;;23.65;71.84;100706.44;4943257;28;46195;-67
2021/09/09 04:54:06;;;;;;;;;26.75;23.00;;;;;23.64;71.29;100714.69;4943198;28;45853;-67
2021/09/09 04:56:31;;;;;;;;;30.00;26.25;;;;;23.61;71.14;100707.81;4943154;28;45248;-67
2021/09/09 04:58:57;;;;;;;;;30.50;28.00;;;;;23.59;71.23;100717.88;4943213;28;45419;-68
2021/09/09 05:01:24;;;;;;;;;28.25;24.00;;;;;23.58;70.75;100721.56;4943384;28;45616;-68
2021/09/09 05:03:49;;;;;;;;;28.00;25.25;;;;;23.58;71.24;100728.81;4943117;28;45351;-68
2021/09/09 05:06:15;;;;;;;;;30.50;25.75;;;;;23.57;71.27;100722.59;4942975;28;45236;-68
2021/09/09 05:08:41;;;;;;;;;30.50;28.25;;;;;23.57;70.91;100722.59;4942970;28;45241;-68
2021/09/09 05:11:10;;;;;;;;;33.50;28.50;;;;;23.56;71.50;100720.91;4943371;28;45351;-68
2021/09/09 05:13:36;;;;;;;;;31.00;28.00;;;;;23.55;71.59;100721.09;4942568;28;45769;-68
2021/09/09 05:16:02;;;;;;;;;28.50;26.50;;;;;23.54;71.84;100714.91;4942659;28;45395;-67
2021/09/09 05:18:27;;;;;;;;;29.50;28.00;;;;;23.53;71.37;100715.88;4942827;28;45435;-67
2021/09/09 05:20:53;;;;;;;;;32.00;28.00;;;;;23.53;71.81;100710.50;4941657;28;45697;-68
2021/09/09 05:23:18;;;;;;;;;32.50;31.50;;;;;23.52;71.23;100711.53;4942014;28;45406;-67
2021/09/09 05:25:44;;;;;;;;;26.50;25.25;;;;;23.53;71.91;100720.41;4941997;28;45273;-63
2021/09/09 05:28:09;;;;;;;;;29.75;26.00;;;;;23.51;71.94;100717.06;4943013;28;45274;-68
2021/09/09 05:30:35;;;;;;;;;34.50;32.25;;;;;23.50;71.74;100721.63;4942941;28;45298;-67
2021/09/09 05:33:00;;;;;;;;;29.00;26.50;;;;;23.50;71.64;100728.84;4942401;28;45311;-67
2021/09/09 05:35:25;;;;;;;;;32.00;29.50;;;;;23.50;72.03;100734.22;4942558;28;45505;-67
2021/09/09 05:37:51;;;;;;;;;29.75;27.25;;;;;23.50;72.13;100728.84;4942162;28;45359;-68
2021/09/09 05:40:17;;;;;;;;;29.75;26.75;;;;;23.49;72.02;100741.47;4942194;28;45367;-68
2021/09/09 05:42:42;;;;;;;;;30.00;27.25;;;;;23.48;71.74;100742.47;4941715;28;45741;-67
2021/09/09 05:45:08;;;;;;;;;36.50;32.50;;;;;23.44;72.28;100745.66;4941698;28;45414;-68
2021/09/09 05:47:34;;;;;;;;;27.75;26.75;;;;;23.43;71.82;100750.22;4942028;28;45517;-68
2021/09/09 05:49:59;;;;;;;;;30.25;28.50;;;;;23.42;72.08;100755.78;4942789;28;45469;-66
2021/09/09 05:52:25;;;;;;;;;30.75;28.50;;;;;23.39;72.43;100760.50;4941720;28;45950;-64
2021/09/09 05:54:50;;;;;;;;;28.00;26.25;;;;;23.40;72.33;100766.72;4941766;28;45469;-67
2021/09/09 05:57:16;;;;;;;;;38.25;29.50;;;;;23.42;72.37;100777.28;4941933;28;45455;-68
2021/09/09 05:59:41;;;;;;;;;35.50;29.50;;;;;23.43;71.93;100770.88;4941782;28;45494;-67
2021/09/09 06:02:14;;;;;;;;;30.50;26.00;;;;;23.41;71.94;100773.75;4941632;28;45713;-67
2021/09/09 06:04:40;;;;;;;;;33.75;31.00;;;;;23.44;71.86;100776.09;4941706;28;45471;-65
2021/09/09 06:07:06;;;;;;;;;28.50;25.25;;;;;23.46;71.71;100781.28;4940843;28;45257;-67
2021/09/09 06:09:31;;;;;;;;;24.50;22.75;;;;;23.47;71.87;100783.81;4941895;28;45355;-68
2021/09/09 06:11:57;;;;;;;;;34.50;30.25;;;;;23.46;71.55;100784.84;4939978;28;46300;-67
2021/09/09 06:14:22;;;;;;;;;34.75;30.75;;;;;23.48;71.52;100787.34;4935439;28;45399;-66
2021/09/09 06:16:48;;;;;;;;;36.00;31.50;;;;;23.48;71.81;100785.50;4941211;28;45405;-64
2021/09/09 06:19:14;;;;;;;;;33.25;30.75;;;;;23.50;71.42;100790.69;4941048;28;45225;-64
2021/09/09 06:21:39;;;;;;;;;31.50;28.25;;;;;23.48;71.41;100788.19;4940555;28;45468;-67
2021/09/09 06:24:06;;;;;;;;;30.50;29.00;;;;;23.47;71.28;100789.19;4938428;28;45324;-65
2021/09/09 06:26:33;;;;;;;;;38.00;31.00;;;;;23.47;71.77;100788.38;4941450;28;45389;-66
2021/09/09 06:28:58;;;;;;;;;38.25;31.50;;;;;23.48;71.55;100790.88;4941439;28;45260;-64
2021/09/09 06:31:23;;;;;;;;;37.50;32.25;;;;;23.47;71.69;100805.34;4940852;28;45985;-66
2021/09/09 06:33:49;;;;;;;;;40.75;32.75;;;;;23.48;71.21;100801.63;4941039;28;45374;-68
2021/09/09 06:36:14;;;;;;;;;35.50;30.75;;;;;23.49;71.47;100794.41;4941154;28;45413;-68
2021/09/09 06:38:40;;;;;;;;;35.75;33.00;;;;;23.49;71.51;100792.53;4941066;28;45537;-68
2021/09/09 06:41:05;;;;;;;;;35.00;30.50;;;;;23.53;71.65;100798.41;4939924;28;46194;-68
2021/09/09 06:43:31;;;;;;;;;37.75;32.50;;;;;23.59;71.67;100803.09;4940536;28;45419;-69
2021/09/09 06:45:57;;;;;;;;;33.25;31.00;;;;;23.66;71.58;100810.31;4940992;28;45514;-70
2021/09/09 06:48:22;;;;;;;;;33.75;27.75;;;;;23.71;71.39;100809.81;4941248;28;45403;-66
2021/09/09 06:50:48;;;;;;;;;40.50;32.75;;;;;23.74;71.07;100812.13;4940784;28;45415;-66
2021/09/09 06:53:13;;;;;;;;;32.75;31.00;;;;;23.76;70.98;100811.97;4940240;28;45453;-65
2021/09/09 06:55:39;;;;;;;;;42.25;34.25;;;;;23.79;70.78;100812.47;4940612;28;45422;-65
2021/09/09 06:58:04;;;;;;;;;41.25;33.00;;;;;23.80;71.00;100811.44;4942506;28;45430;-64
2021/09/09 07:00:30;;;;;;;;;39.25;33.00;;;;;23.87;70.21;100815.13;4944008;28;46336;-65
2021/09/09 07:02:55;;;;;;;;;41.50;33.00;;;;;23.90;70.03;100822.00;4943597;28;45244;-64
2021/09/09 07:05:21;;;;;;;;;43.00;33.25;;;;;23.92;69.67;100811.88;4943405;28;45208;-64
2021/09/09 07:07:46;;;;;;;;;47.00;36.75;;;;;23.92;69.92;100823.47;4944309;28;45499;-66
2021/09/09 07:10:12;;;;;;;;;38.25;31.00;;;;;23.92;69.47;100817.25;4943888;28;46152;-67
2021/09/09 07:12:37;;;;;;;;;38.50;32.00;;;;;23.94;69.93;100820.63;4943794;28;45343;-64
2021/09/09 07:15:05;;;;;;;;;31.50;29.25;;;;;23.97;69.89;100825.66;4943974;28;45303;-64
2021/09/09 07:17:30;;;;;;;;;35.75;32.75;;;;;23.95;70.03;100816.94;4944125;28;45389;-65
2021/09/09 07:19:56;;;;;;;;;41.50;35.25;;;;;23.93;70.07;100817.06;4943791;28;45275;-65
2021/09/09 07:22:21;;;;;;;;;39.25;32.00;;;;;23.93;70.09;100819.78;4943811;28;45423;-64
2021/09/09 07:24:47;;;;;;;;;37.50;32.25;;;;;23.90;69.41;100814.75;4943769;28;45283;-70
2021/09/09 07:27:12;;;;;;;;;38.25;30.75;;;;;23.88;69.93;100813.25;4944304;28;45276;-65
2021/09/09 07:29:38;;;;;;;;;42.00;33.75;;;;;23.87;69.74;100820.50;4944369;28;46229;-64
2021/09/09 07:32:04;;;;;;;;;45.00;34.75;;;;;23.87;70.10;100817.81;4944359;28;45233;-65
2021/09/09 07:34:29;;;;;;;;;73.50;60.75;;;;;23.86;69.53;100810.75;4944321;28;45352;-63
2021/09/09 07:36:55;;;;;;;;;39.75;30.00;;;;;23.87;70.11;100825.88;4944169;28;45450;-64
2021/09/09 07:39:21;;;;;;;;;37.75;30.50;;;;;23.86;69.30;100821.50;4942698;28;45190;-66
2021/09/09 07:41:47;;;;;;;;;33.50;30.75;;;;;23.88;69.65;100821.34;4944344;28;45331;-67
2021/09/09 07:44:13;;;;;;;;;39.00;32.25;;;;;23.90;70.45;100822.00;4943597;28;45487;-65
2021/09/09 07:46:39;;;;;;;;;36.75;29.50;;;;;23.93;69.45;100827.84;4943963;28;45355;-66
2021/09/09 07:49:04;;;;;;;;;42.00;33.00;;;;;23.95;70.10;100825.00;4943391;28;46254;-63
2021/09/09 07:51:30;;;;;;;;;39.75;29.50;;;;;23.94;69.52;100834.09;4943599;28;45355;-65
2021/09/09 07:53:56;;;;;;;;;41.50;29.75;;;;;23.93;69.35;100830.53;4925941;28;45393;-65
2021/09/09 07:56:22;;;;;;;;;36.50;32.50;;;;;23.93;69.49;100827.84;4943586;28;45278;-66
2021/09/09 07:58:50;;;;;;;;;35.75;30.75;;;;;23.90;69.19;100820.13;4943355;28;45348;-66
2021/09/09 08:01:18;;;;;;;;;38.25;31.25;;;;;23.91;69.58;100823.66;4943733;28;45450;-65
2021/09/09 08:03:43;;;;;;;;;34.00;31.00;;;;;23.89;69.20;100828.38;4943415;28;45466;-67
2021/09/09 08:06:09;;;;;;;;;31.50;29.75;;;;;23.90;68.91;100825.53;4943144;28;45312;-67
2021/09/09 08:08:34;;;;;;;;;30.25;25.75;;;;;23.94;69.46;100829.56;4942351;28;45458;-68
2021/09/09 08:11:00;;;;;;;;;34.50;30.25;;;;;23.99;69.69;100829.00;4943845;28;45311;-67
2021/09/09 08:13:25;;;;;;;;;31.00;30.00;;;;;24.06;69.03;100824.59;4943745;28;45470;-65
2021/09/09 08:15:51;;;;;;;;;38.25;30.75;;;;;24.12;68.77;100826.59;4943603;28;45506;-68
2021/09/09 08:18:16;;;;;;;;;29.25;26.25;;;;;24.15;69.02;100825.38;4943277;28;46043;-66
2021/09/09 08:20:42;;;;;;;;;36.25;30.50;;;;;24.19;68.08;100826.72;4943546;28;45326;-62
2021/09/09 08:23:07;;;;;;;;;70.25;53.75;;;;;24.21;68.48;100830.91;4943675;28;45445;-66
2021/09/09 08:25:33;;;;;;;;;34.00;28.25;;;;;24.23;68.29;100834.25;4943270;28;45436;-64
2021/09/09 08:27:58;;;;;;;;;29.00;26.25;;;;;24.23;68.14;100845.00;4943486;28;45715;-65
2021/09/09 08:30:24;;;;;;;;;29.75;29.00;;;;;24.20;68.13;100837.31;4943788;28;45237;-66
2021/09/09 08:32:49;;;;;;;;;29.75;27.50;;;;;24.20;68.13;100847.25;4943372;28;45347;-68
2021/09/09 08:35:15;;;;;;;;;28.00;24.25;;;;;24.16;68.08;100838.66;4942944;28;45308;-70
2021/09/09 08:37:40;;;;;;;;;31.75;30.75;;;;;24.14;67.64;100838.00;4943246;28;45303;-66
2021/09/09 08:40:09;;;;;;;;;23.50;23.25;;;;;24.12;67.85;100842.75;4943414;28;45653;-68
2021/09/09 08:42:37;;;;;;;;;34.00;30.00;;;;;24.11;68.40;100846.44;4943020;28;45389;-65
2021/09/09 08:45:04;;;;;;;;;31.00;27.25;;;;;24.09;68.55;100845.75;4943535;28;45465;-69
2021/09/09 08:47:31;;;;;;;;;29.75;25.75;;;;;24.08;67.59;100846.78;4942902;28;46864;-67
2021/09/09 08:49:57;;;;;;;;;32.75;29.00;;;;;24.08;67.79;100846.78;4943194;28;45294;-65
2021/09/09 08:52:23;;;;;;;;;32.75;27.50;;;;;24.09;67.80;100843.06;4942795;28;45359;-66
2021/09/09 08:54:48;;;;;;;;;28.75;25.50;;;;;24.12;68.18;100847.28;4943096;28;45562;-66
2021/09/09 08:57:20;;;;;;;;;28.75;26.75;;;;;24.14;68.14;100846.09;4942628;28;46076;-67
2021/09/09 08:59:45;;;;;;;;;29.25;27.50;;;;;24.18;67.90;100857.34;4943131;28;45410;-64
2021/09/09 09:02:11;;;;;;;;;32.25;28.25;;;;;24.18;67.31;100847.41;4942825;28;45279;-66
2021/09/09 09:04:38;;;;;;;;;30.75;27.25;;;;;24.20;67.91;100852.63;4943271;28;45280;-64
2021/09/09 09:07:05;;;;;;;;;32.50;29.75;;;;;24.20;67.62;100861.53;4942353;28;45598;-67
2021/09/09 09:09:36;;;;;;;;;34.75;29.75;;;;;24.22;67.93;100854.09;4941755;28;45504;-68
2021/09/09 09:12:10;;;;;;;;;30.75;28.25;;;;;24.19;67.46;100856.34;4941267;28;45465;-62
2021/09/09 09:14:36;;;;;;;;;31.50;28.75;;;;;24.20;67.35;100866.06;4941762;28;45429;-68
2021/09/09 09:17:04;;;;;;;;;32.50;28.00;;;;;24.18;67.66;100865.44;4941871;28;46114;-68
2021/09/09 09:19:36;;;;;;;;;30.75;29.75;;;;;24.17;67.57;100861.03;4942050;28;45464;-68
2021/09/09 09:22:10;;;;;;;;;29.00;25.50;;;;;24.16;67.52;100868.28;4942232;28;45310;-65
2021/09/09 09:24:47;;;;;;;;;32.50;28.25;;;;;24.13;68.08;100863.25;4942281;28;45408;-67
2021/09/09 09:27:15;;;;;;;;;31.50;26.50;;;;;24.17;67.67;100851.13;4942401;28;45430;-68
2021/09/09 09:29:58;;;;;;;;;29.00;26.75;;;;;24.20;68.17;100860.69;4942477;28;45541;-69
2021/09/09 09:32:23;;;;;;;;;34.75;27.25;;;;;24.22;67.86;100862.19;4942281;28;45396;-66
2021/09/09 09:34:49;;;;;;;;;33.50;27.75;;;;;24.24;67.58;100859.31;4942477;28;45315;-66
2021/09/09 09:37:22;;;;;;;;;27.00;25.75;;;;;24.27;67.56;100858.97;4942012;28;45953;-65
2021/09/09 09:39:48;;;;;;;;;28.75;24.75;;;;;24.28;67.89;100857.97;4942468;28;45442;-66
2021/09/09 09:42:13;;;;;;;;;30.50;25.75;;;;;24.31;67.57;100856.75;4942353;28;45255;-65
2021/09/09 09:44:41;;;;;;;;;24.00;22.50;;;;;24.37;67.67;100856.09;4942792;28;45578;-65
2021/09/09 09:47:21;;;;;;;;;28.00;24.75;;;;;24.45;68.15;100864.09;4942135;28;45174;-67
2021/09/09 09:49:55;;;;;;;;;28.00;23.00;;;;;24.51;67.81;100868.78;4942431;28;45486;-67
2021/09/09 09:52:26;;;;;;;;;26.50;20.75;;;;;24.53;67.45;100869.44;4941981;28;45386;-65
2021/09/09 09:54:59;;;;;;;;;31.25;25.00;;;;;24.55;66.66;100869.25;4942228;28;45529;-66
2021/09/09 09:57:26;;;;;;;;;28.25;24.25;;;;;24.57;67.21;100868.09;4941905;28;45409;-67
2021/09/09 09:59:52;;;;;;;;;31.00;26.50;;;;;24.63;67.46;100864.66;4942505;28;45385;-67
2021/09/09 10:02:18;;;;;;;;;21.75;20.00;;;;;24.71;66.66;100861.91;4942200;28;45219;-66
2021/09/09 10:04:49;;;;;;;;;26.75;23.25;;;;;24.82;66.58;100854.44;4941992;28;45241;-63
2021/09/09 10:07:15;;;;;;;;;29.75;26.00;;;;;24.92;66.43;100858.53;4941313;28;46561;-65
2021/09/09 10:09:42;;;;;;;;;24.50;22.75;;;;;24.99;66.50;100850.56;4941961;28;45402;-63
2021/09/09 10:12:09;;;;;;;;;26.00;24.25;;;;;25.07;66.12;100858.63;4941972;28;45524;-64
2021/09/09 10:14:44;;;;;;;;;19.50;18.50;;;;;25.18;66.04;100860.03;4942284;28;45483;-63
2021/09/09 10:17:11;;;;;;;;;20.00;19.50;;;;;25.26;65.76;100860.78;4941431;28;45611;-68
2021/09/09 10:19:36;;;;;;;;;20.25;16.50;;;;;25.36;65.56;100857.84;4941441;28;45439;-65
2021/09/09 10:22:12;;;;;;;;;24.50;20.75;;;;;25.45;65.65;100864.81;4941864;28;45549;-67
2021/09/09 10:24:44;;;;;;;;;23.50;20.75;;;;;25.52;65.25;100856.81;4941867;28;45385;-65
2021/09/09 10:27:23;;;;;;;;;22.25;22.25;;;;;25.54;64.83;100860.16;4941582;28;46276;-67
2021/09/09 10:30:10;;;;;;;;;27.00;22.50;;;;;25.54;64.62;100858.31;4941484;28;45356;-66
2021/09/09 10:32:35;;;;;;;;;21.00;21.00;;;;;25.70;64.91;100854.59;4942524;28;45603;-67
2021/09/09 10:35:20;;;;;;;;;23.75;21.75;;;;;25.83;64.13;100854.81;4945119;28;45447;-65
2021/09/09 10:38:18;;;;;;;;;17.50;17.50;;;;;25.91;64.14;100858.41;4944478;28;46258;-64
2021/09/09 10:40:45;;;;;;;;;25.25;21.75;;;;;25.98;63.86;100856.63;4944263;28;45366;-63
2021/09/09 10:43:13;;;;;;;;;24.25;22.00;;;;;26.00;63.75;100851.88;4960057;28;45306;-65
2021/09/09 10:45:45;;;;;;;;;23.25;18.75;;;;;26.02;63.65;100858.75;4945003;28;45330;-70
2021/09/09 10:48:22;;;;;;;;;18.25;18.00;;;;;26.08;62.93;100854.47;4944987;28;46217;-66
2021/09/09 10:50:57;;;;;;;;;18.25;16.75;;;;;26.22;62.74;100852.75;4944450;28;45403;-65
2021/09/09 10:53:51;;;;;;;;;17.00;15.50;;;;;26.37;61.58;100850.84;4944222;28;45585;-65
2021/09/09 10:56:19;;;;;;;;;17.50;15.75;;;;;26.45;61.07;100856.16;4935523;28;45448;-66
2021/09/09 10:58:45;;;;;;;;;19.00;17.00;;;;;26.41;60.78;100854.88;4944355;28;45392;-64
2021/09/09 11:01:11;;;;;;;;;14.00;12.75;;;;;26.29;60.76;100850.97;4944229;28;45262;-64
2021/09/09 11:03:48;;;;;;;;;16.00;14.00;;;;;26.24;60.25;100848.03;4944539;28;45232;-64
2021/09/09 11:06:19;;;;;;;;;14.75;14.25;;;;;26.23;60.23;100849.03;4944654;28;45489;-66
2021/09/09 11:08:47;;;;;;;;;19.50;16.00;;;;;26.23;60.65;100857.13;4944111;28;45385;-64